createdAt,value
2023-12-28T00:01:12.295Z,9.80
2023-12-28T00:04:14.712Z,9.76
2023-12-28T00:07:16.952Z,9.79
2023-12-28T00:10:20.369Z,9.72
2023-12-28T00:13:22.595Z,9.73
2023-12-28T00:16:24.787Z,9.78
2023-12-28T00:19:27.464Z,9.76
2023-12-28T00:22:29.843Z,9.70
2023-12-28T00:25:32.106Z,9.71
2023-12-28T00:28:34.287Z,9.68
2023-12-28T00:31:36.606Z,9.66
2023-12-28T00:34:40.913Z,9.67
2023-12-28T00:37:44.545Z,9.63
2023-12-28T00:40:47.433Z,9.71
2023-12-28T00:43:49.587Z,9.63
2023-12-28T00:46:51.809Z,9.61
2023-12-28T00:49:54.227Z,9.59
2023-12-28T00:52:56.573Z,9.61
2023-12-28T00:55:58.800Z,9.61
2023-12-28T00:59:03.131Z,9.57
2023-12-28T01:02:05.378Z,9.57
2023-12-28T01:05:08.498Z,9.52
2023-12-28T01:08:10.779Z,9.53
2023-12-28T01:11:13.564Z,9.60
2023-12-28T01:14:16.826Z,9.57
2023-12-28T01:17:20.460Z,9.55
2023-12-28T01:20:22.685Z,9.56
2023-12-28T01:23:25.006Z,9.57
2023-12-28T01:26:28.972Z,9.58
2023-12-28T01:29:33.942Z,9.62
2023-12-28T01:32:36.200Z,9.64
2023-12-28T01:35:38.461Z,9.59
2023-12-28T01:38:40.683Z,9.51
2023-12-28T01:41:45.344Z,9.50
2023-12-28T01:44:47.924Z,9.46
2023-12-28T01:47:51.102Z,9.40
2023-12-28T01:50:53.456Z,9.35
2023-12-28T01:53:55.926Z,9.38
2023-12-28T01:56:58.821Z,9.30
2023-12-28T02:00:02.722Z,9.27
2023-12-28T02:03:15.344Z,9.34
2023-12-28T02:06:18.054Z,9.32
2023-12-28T02:09:20.441Z,9.31
2023-12-28T02:12:22.736Z,9.29
2023-12-28T02:15:25.155Z,9.36
2023-12-28T02:18:33.334Z,9.37
2023-12-28T02:21:35.723Z,9.30
2023-12-28T02:25:13.104Z,9.31
2023-12-28T02:28:16.082Z,9.34
2023-12-28T02:31:40.543Z,9.26
2023-12-28T02:34:44.204Z,9.23
2023-12-28T02:37:49.252Z,9.18
2023-12-28T02:40:52.325Z,9.16
2023-12-28T02:43:54.567Z,9.18
2023-12-28T02:46:56.805Z,9.15
2023-12-28T02:50:00.503Z,9.14
2023-12-28T02:53:03.249Z,9.13
2023-12-28T02:56:05.886Z,9.14
2023-12-28T02:59:08.171Z,9.08
2023-12-28T03:02:10.363Z,9.11
2023-12-28T03:05:12.691Z,9.15
2023-12-28T03:08:15.127Z,9.08
2023-12-28T03:11:17.441Z,9.09
2023-12-28T03:14:19.741Z,9.09
2023-12-28T03:17:22.187Z,9.09
2023-12-28T03:20:24.448Z,9.13
2023-12-28T03:23:26.733Z,9.18
2023-12-28T03:26:29.012Z,9.09
2023-12-28T03:29:32.110Z,9.07
2023-12-28T03:32:34.455Z,9.03
2023-12-28T03:35:36.712Z,9.08
2023-12-28T03:38:39.847Z,9.04
2023-12-28T03:41:42.091Z,8.86
2023-12-28T03:44:44.422Z,8.86
2023-12-28T03:47:46.778Z,8.98
2023-12-28T03:50:49.212Z,8.84
2023-12-28T03:53:51.472Z,8.89
2023-12-28T03:56:55.290Z,8.83
2023-12-28T03:59:58.021Z,8.80
2023-12-28T04:03:01.151Z,8.77
2023-12-28T04:06:03.535Z,8.75
2023-12-28T04:09:05.835Z,8.66
2023-12-28T04:12:08.575Z,8.73
2023-12-28T04:15:11.003Z,8.76
2023-12-28T04:18:13.511Z,8.78
2023-12-28T04:21:15.986Z,8.80
2023-12-28T04:24:18.325Z,8.82
2023-12-28T04:27:20.662Z,8.80
2023-12-28T04:30:22.957Z,8.71
2023-12-28T04:33:25.299Z,8.70
2023-12-28T04:36:27.715Z,8.63
2023-12-28T04:39:30.268Z,8.70
2023-12-28T04:42:32.782Z,8.70
2023-12-28T04:45:35.217Z,8.67
2023-12-28T04:48:37.831Z,8.60
2023-12-28T04:51:45.478Z,8.69
2023-12-28T04:54:47.917Z,8.73
2023-12-28T04:57:50.399Z,8.72
2023-12-28T05:00:54.352Z,8.66
2023-12-28T05:03:56.677Z,8.72
2023-12-28T05:06:59.026Z,8.69
2023-12-28T05:10:01.378Z,8.65
2023-12-28T05:13:03.807Z,8.73
2023-12-28T05:16:07.159Z,8.71
2023-12-28T05:19:10.560Z,8.84
2023-12-28T05:22:13.639Z,8.79
2023-12-28T05:25:15.981Z,8.66
2023-12-28T05:28:18.252Z,8.75
2023-12-28T05:31:20.652Z,8.73
2023-12-28T05:34:23.092Z,8.71
2023-12-28T05:37:25.355Z,8.78
2023-12-28T05:40:27.560Z,8.82
2023-12-28T05:43:29.733Z,8.85
2023-12-28T05:46:31.962Z,8.82
2023-12-28T05:49:34.415Z,8.85
2023-12-28T05:52:36.805Z,8.81
2023-12-28T05:55:39.042Z,8.83
2023-12-28T05:58:41.603Z,8.89
2023-12-28T06:01:44.890Z,8.89
2023-12-28T06:04:47.384Z,8.90
2023-12-28T06:07:49.693Z,8.90
2023-12-28T06:10:51.940Z,8.84
2023-12-28T06:13:54.249Z,8.87
2023-12-28T06:16:56.741Z,8.76
2023-12-28T06:19:59.204Z,8.72
2023-12-28T06:23:01.577Z,8.72
2023-12-28T06:26:07.880Z,8.83
2023-12-28T06:29:10.660Z,8.82
2023-12-28T06:32:13.031Z,8.67
2023-12-28T06:35:15.352Z,8.66
2023-12-28T06:38:17.568Z,8.66
2023-12-28T06:41:19.773Z,8.50
2023-12-28T06:44:21.984Z,8.45
2023-12-28T06:47:24.283Z,8.45
2023-12-28T06:50:26.491Z,8.43
2023-12-28T06:53:28.883Z,8.53
2023-12-28T06:56:31.128Z,8.45
2023-12-28T06:59:33.332Z,8.65
2023-12-28T07:02:35.555Z,8.57
2023-12-28T07:05:37.817Z,8.57
2023-12-28T07:08:40.032Z,8.70
2023-12-28T07:11:42.210Z,8.91
2023-12-28T07:14:44.526Z,8.77
2023-12-28T07:17:46.886Z,8.74
2023-12-28T07:20:49.809Z,8.74
2023-12-28T07:23:52.055Z,8.83
2023-12-28T07:26:54.395Z,8.83
2023-12-28T07:29:56.630Z,8.85
2023-12-28T07:32:59.017Z,8.81
2023-12-28T07:36:03.734Z,8.87
2023-12-28T07:39:05.929Z,8.87
2023-12-28T07:42:08.269Z,8.96
2023-12-28T07:45:10.548Z,8.98
2023-12-28T07:48:12.971Z,9.11
2023-12-28T07:51:15.233Z,9.09
2023-12-28T07:54:17.622Z,9.11
2023-12-28T07:57:19.942Z,9.21
2023-12-28T08:00:22.308Z,9.28
2023-12-28T08:03:24.636Z,9.33
2023-12-28T08:06:27.056Z,9.37
2023-12-28T08:09:29.354Z,9.43
2023-12-28T08:12:31.556Z,9.45
2023-12-28T08:15:34.773Z,9.46
2023-12-28T08:18:37.164Z,9.48
2023-12-28T08:21:39.456Z,9.58
2023-12-28T08:24:41.727Z,9.59
2023-12-28T08:27:44.018Z,9.63
2023-12-28T08:30:46.392Z,9.71
2023-12-28T08:33:48.764Z,9.65
2023-12-28T08:36:51.072Z,9.74
2023-12-28T08:39:54.479Z,9.65
2023-12-28T08:42:56.853Z,9.79
2023-12-28T08:45:59.265Z,9.86
2023-12-28T08:49:01.589Z,9.88
2023-12-28T08:52:04.227Z,9.94
2023-12-28T08:55:07.139Z,9.98
2023-12-28T08:58:09.478Z,10.04
2023-12-28T09:01:28.368Z,10.06
2023-12-28T09:04:30.678Z,10.07
2023-12-28T09:07:33.096Z,10.10
2023-12-28T09:10:35.560Z,10.15
2023-12-28T09:13:37.800Z,10.27
2023-12-28T09:16:41.894Z,10.33
2023-12-28T09:19:44.374Z,10.40
2023-12-28T09:22:47.172Z,10.43
2023-12-28T09:25:50.376Z,10.38
2023-12-28T09:28:52.659Z,10.45
2023-12-28T09:31:55.106Z,10.57
2023-12-28T09:34:57.403Z,10.56
2023-12-28T09:37:59.850Z,10.64
2023-12-28T09:41:13.573Z,10.70
2023-12-28T09:44:16.471Z,10.71
2023-12-28T09:47:18.775Z,10.79
2023-12-28T09:50:21.425Z,10.83
2023-12-28T09:53:24.656Z,10.78
2023-12-28T09:56:29.890Z,10.83
2023-12-28T09:59:33.798Z,10.83
2023-12-28T10:02:37.509Z,10.90
2023-12-28T10:05:42.101Z,10.90
2023-12-28T10:08:49.196Z,10.94
2023-12-28T10:11:51.584Z,10.94
2023-12-28T10:14:54.910Z,10.94
2023-12-28T10:17:57.275Z,11.01
2023-12-28T10:20:59.529Z,11.09
2023-12-28T10:24:03.244Z,11.21
2023-12-28T10:27:05.506Z,11.21
2023-12-28T10:30:08.633Z,11.28
2023-12-28T10:33:11.262Z,11.25
2023-12-28T10:36:16.751Z,11.27
2023-12-28T10:39:21.447Z,11.22
2023-12-28T10:42:32.053Z,11.34
2023-12-28T10:45:36.030Z,11.43
2023-12-28T10:48:43.787Z,11.43
2023-12-28T10:51:48.955Z,11.53
2023-12-28T10:55:04.421Z,11.65
2023-12-28T10:58:14.881Z,11.67
2023-12-28T11:01:24.258Z,11.77
2023-12-28T11:04:40.071Z,11.81
2023-12-28T11:07:42.461Z,11.85
2023-12-28T11:10:44.937Z,11.95
2023-12-28T11:13:47.691Z,12.05
2023-12-28T11:16:50.000Z,12.15
2023-12-28T11:19:54.330Z,12.22
2023-12-28T11:22:57.241Z,12.29
2023-12-28T11:25:59.658Z,12.26
2023-12-28T11:29:05.320Z,12.44
2023-12-28T11:32:09.346Z,12.52
2023-12-28T11:35:15.716Z,12.58
2023-12-28T11:38:18.539Z,12.68
2023-12-28T11:41:21.942Z,12.70
2023-12-28T11:44:27.454Z,12.76
2023-12-28T11:47:29.854Z,12.89
2023-12-28T11:50:33.052Z,12.97
2023-12-28T11:53:36.592Z,13.04
2023-12-28T11:56:38.876Z,13.14
2023-12-28T11:59:41.357Z,13.24
2023-12-28T12:02:46.725Z,13.30
2023-12-28T12:05:49.198Z,13.35
2023-12-28T12:08:51.456Z,13.45
2023-12-28T12:11:54.958Z,13.52
2023-12-28T12:14:57.667Z,13.63
2023-12-28T12:18:00.504Z,13.70
2023-12-28T12:21:04.257Z,13.78
2023-12-28T12:24:06.839Z,13.86
2023-12-28T12:27:09.150Z,13.87
2023-12-28T12:30:11.716Z,14.01
2023-12-28T12:33:14.245Z,14.05
2023-12-28T12:36:16.974Z,14.07
2023-12-28T12:39:19.263Z,14.13
2023-12-28T12:42:21.602Z,14.18
2023-12-28T12:45:26.932Z,14.20
2023-12-28T12:48:29.451Z,14.24
2023-12-28T12:51:32.112Z,14.29
2023-12-28T12:54:34.482Z,14.33
2023-12-28T12:57:36.924Z,14.38
2023-12-28T13:00:39.283Z,14.43
2023-12-28T13:03:41.784Z,14.44
2023-12-28T13:06:44.348Z,14.45
2023-12-28T13:09:46.678Z,14.44
2023-12-28T13:12:49.031Z,14.49
2023-12-28T13:15:51.377Z,14.55
2023-12-28T13:18:54.377Z,14.54
2023-12-28T13:21:56.920Z,14.59
2023-12-28T13:24:59.248Z,14.57
2023-12-28T13:28:01.855Z,14.62
2023-12-28T13:31:04.481Z,14.66
2023-12-28T13:34:06.884Z,14.67
2023-12-28T13:37:09.386Z,14.68
2023-12-28T13:40:11.974Z,14.71
2023-12-28T13:43:14.282Z,14.71
2023-12-28T13:46:16.555Z,14.71
2023-12-28T13:49:19.302Z,14.73
2023-12-28T13:52:21.853Z,14.71
2023-12-28T13:55:29.068Z,14.67
2023-12-28T13:58:31.366Z,14.71
2023-12-28T14:01:33.687Z,14.73
2023-12-28T14:04:36.794Z,14.66
2023-12-28T14:07:39.076Z,14.66
2023-12-28T14:10:41.331Z,14.66
2023-12-28T14:13:43.644Z,14.64
2023-12-28T14:16:47.249Z,14.60
2023-12-28T14:19:49.737Z,14.52
2023-12-28T14:22:52.389Z,14.35
2023-12-28T14:25:55.029Z,14.34
2023-12-28T14:29:00.166Z,14.21
2023-12-28T14:32:02.742Z,14.13
2023-12-28T14:35:08.887Z,14.10
2023-12-28T14:38:11.231Z,14.02
2023-12-28T14:41:13.581Z,13.94
2023-12-28T14:44:15.808Z,13.81
2023-12-28T14:47:18.068Z,13.68
2023-12-28T14:50:20.401Z,13.53
2023-12-28T14:53:24.605Z,13.37
2023-12-28T14:56:30.026Z,13.22
2023-12-28T14:59:35.793Z,13.05
2023-12-28T15:02:38.218Z,12.89
2023-12-28T15:05:40.400Z,12.80
2023-12-28T15:08:42.727Z,12.77
2023-12-28T15:11:48.799Z,12.65
2023-12-28T15:14:52.030Z,12.54
2023-12-28T15:17:54.757Z,12.42
2023-12-28T15:20:57.552Z,12.31
2023-12-28T15:24:00.288Z,12.20
2023-12-28T15:27:03.354Z,12.10
2023-12-28T15:30:07.080Z,11.94
2023-12-28T15:33:09.662Z,11.99
2023-12-28T15:36:12.057Z,11.91
2023-12-28T15:39:14.362Z,11.92
2023-12-28T15:42:16.603Z,11.88
2023-12-28T15:45:18.772Z,11.79
2023-12-28T15:48:21.156Z,11.66
2023-12-28T15:51:24.468Z,11.59
2023-12-28T15:54:29.578Z,11.47
2023-12-28T15:57:32.356Z,11.27
2023-12-28T16:00:34.758Z,11.30
2023-12-28T16:03:37.240Z,11.27
2023-12-28T16:06:39.448Z,11.19
2023-12-28T16:09:42.046Z,11.27
2023-12-28T16:12:44.541Z,11.23
2023-12-28T16:15:47.270Z,11.26
2023-12-28T16:18:50.093Z,11.21
2023-12-28T16:21:52.886Z,11.14
2023-12-28T16:24:55.262Z,11.10
2023-12-28T16:27:59.288Z,11.17
2023-12-28T16:31:03.236Z,11.03
2023-12-28T16:34:09.826Z,11.02
2023-12-28T16:37:13.671Z,10.96
2023-12-28T16:40:16.305Z,10.90
2023-12-28T16:43:18.800Z,10.60
2023-12-28T16:46:21.200Z,10.46
2023-12-28T16:49:23.574Z,10.57
2023-12-28T16:52:25.846Z,10.60
2023-12-28T16:55:28.224Z,10.62
2023-12-28T16:58:30.473Z,10.62
2023-12-28T17:01:34.361Z,10.75
2023-12-28T17:04:37.156Z,10.55
2023-12-28T17:07:39.614Z,10.58
2023-12-28T17:10:42.225Z,10.33
2023-12-28T17:13:47.867Z,10.31
2023-12-28T17:16:51.032Z,10.35
2023-12-28T17:19:53.700Z,10.47
2023-12-28T17:23:10.359Z,10.35
2023-12-28T17:26:29.052Z,10.40
2023-12-28T17:29:31.554Z,10.39
2023-12-28T17:32:37.249Z,10.37
2023-12-28T17:35:40.048Z,10.30
2023-12-28T17:38:43.868Z,10.25
2023-12-28T17:41:47.961Z,10.19
2023-12-28T17:44:54.458Z,10.10
2023-12-28T17:48:10.353Z,10.13
2023-12-28T17:51:13.512Z,10.04
2023-12-28T17:54:16.077Z,10.05
2023-12-28T17:57:18.403Z,10.17
2023-12-28T18:00:23.634Z,10.17
2023-12-28T18:03:26.273Z,10.14
2023-12-28T18:06:28.801Z,10.16
2023-12-28T18:09:31.213Z,10.11
2023-12-28T18:12:33.739Z,10.09
2023-12-28T18:15:36.354Z,10.13
2023-12-28T18:18:38.977Z,10.12
2023-12-28T18:21:43.970Z,10.12
2023-12-28T18:24:46.283Z,10.10
2023-12-28T18:27:48.580Z,10.03
2023-12-28T18:30:51.089Z,9.99
2023-12-28T18:33:53.558Z,10.02
2023-12-28T18:36:57.392Z,9.85
2023-12-28T18:39:59.716Z,9.82
2023-12-28T18:43:02.158Z,9.67
2023-12-28T18:46:04.573Z,9.65
2023-12-28T18:49:09.596Z,9.52
2023-12-28T18:52:11.996Z,9.55
2023-12-28T18:55:14.682Z,9.48
2023-12-28T18:58:17.168Z,9.58
2023-12-28T19:01:19.665Z,9.50
2023-12-28T19:04:22.165Z,9.40
2023-12-28T19:07:25.104Z,9.44
2023-12-28T19:10:27.369Z,9.49
2023-12-28T19:13:29.825Z,9.42
2023-12-28T19:16:31.969Z,9.40
2023-12-28T19:19:34.582Z,9.45
2023-12-28T19:22:37.425Z,9.47
2023-12-28T19:25:39.760Z,9.41
2023-12-28T19:28:42.114Z,9.39
2023-12-28T19:31:44.429Z,9.40
2023-12-28T19:34:47.271Z,9.36
2023-12-28T19:37:51.694Z,9.28
2023-12-28T19:40:54.050Z,9.30
2023-12-28T19:43:57.003Z,9.21
2023-12-28T19:46:59.250Z,9.21
2023-12-28T19:50:01.978Z,9.12
2023-12-28T19:53:06.007Z,9.18
2023-12-28T19:56:08.676Z,9.19
2023-12-28T19:59:11.598Z,9.14
2023-12-28T20:02:14.545Z,9.09
2023-12-28T20:05:18.489Z,8.97
2023-12-28T20:08:20.934Z,8.97
2023-12-28T20:11:23.164Z,8.99
2023-12-28T20:14:25.554Z,9.13
2023-12-28T20:17:27.937Z,9.18
2023-12-28T20:20:30.500Z,9.10
2023-12-28T20:23:33.002Z,9.14
2023-12-28T20:26:35.694Z,9.16
2023-12-28T20:29:38.348Z,9.07
2023-12-28T20:32:41.475Z,9.13
2023-12-28T20:35:43.892Z,9.06
2023-12-28T20:38:46.166Z,9.11
2023-12-28T20:41:48.440Z,9.03
2023-12-28T20:44:50.718Z,9.00
2023-12-28T20:47:53.037Z,8.96
2023-12-28T20:50:55.320Z,8.95
2023-12-28T20:53:57.557Z,8.93
2023-12-28T20:56:59.876Z,8.99
2023-12-28T21:00:02.335Z,8.96
2023-12-28T21:03:04.905Z,8.85
2023-12-28T21:06:07.251Z,8.89
2023-12-28T21:09:09.482Z,8.70
2023-12-28T21:12:13.568Z,8.87
2023-12-28T21:15:15.846Z,8.88
2023-12-28T21:18:27.286Z,8.93
2023-12-28T21:21:33.183Z,8.91
2023-12-28T21:24:38.557Z,8.82
2023-12-28T21:27:40.937Z,8.76
2023-12-28T21:30:43.379Z,8.65
2023-12-28T21:33:45.810Z,8.63
2023-12-28T21:36:49.725Z,8.64
2023-12-28T21:39:52.067Z,8.71
2023-12-28T21:42:57.035Z,8.75
2023-12-28T21:45:59.742Z,8.70
2023-12-28T21:49:02.139Z,8.64
2023-12-28T21:52:04.735Z,8.64
2023-12-28T21:55:07.602Z,8.62
2023-12-28T21:58:12.783Z,8.55
2023-12-28T22:01:15.189Z,8.57
2023-12-28T22:04:17.552Z,8.58
2023-12-28T22:07:19.889Z,8.59
2023-12-28T22:10:22.394Z,8.58
2023-12-28T22:13:24.775Z,8.58
2023-12-28T22:16:27.020Z,8.51
2023-12-28T22:19:29.568Z,8.48
2023-12-28T22:22:31.898Z,8.48
2023-12-28T22:25:34.100Z,8.48
2023-12-28T22:28:36.411Z,8.56
2023-12-28T22:34:41.271Z,8.55
2023-12-28T22:37:43.514Z,8.48
2023-12-28T22:40:45.951Z,8.63
2023-12-28T22:43:48.192Z,8.62
2023-12-28T22:46:50.704Z,8.65
2023-12-28T22:49:53.128Z,8.54
2023-12-28T22:52:55.464Z,8.51
2023-12-28T22:55:57.790Z,8.65
2023-12-28T22:59:00.075Z,8.58
2023-12-28T23:02:02.553Z,8.52
2023-12-28T23:05:05.185Z,8.55
2023-12-28T23:08:07.492Z,8.62
2023-12-28T23:11:10.002Z,8.61
2023-12-28T23:14:12.316Z,8.59
2023-12-28T23:17:14.554Z,8.47
2023-12-28T23:20:16.855Z,8.49
2023-12-28T23:23:19.050Z,8.50
2023-12-28T23:26:22.311Z,8.44
2023-12-28T23:29:24.705Z,8.41
2023-12-28T23:32:27.095Z,8.37
2023-12-28T23:35:29.361Z,8.33
2023-12-28T23:38:31.563Z,8.41
2023-12-28T23:41:33.802Z,8.40
2023-12-28T23:44:38.687Z,8.29
2023-12-28T23:47:40.906Z,8.18
2023-12-28T23:50:43.418Z,8.36
2023-12-28T23:53:46.630Z,8.25
2023-12-28T23:56:48.877Z,8.22
2023-12-28T23:59:51.081Z,8.27
